New Orleans, LA (70123)

10:53 PM CDT on September 03, 2015 (GMT -0500)
Hickory Ridge Estates | | Change Station
CLOSE
Current Station
Personal Weather Station
Location: Harahan, LA
Elevation: 11 ft
Nearby Weather Stations

Elev 11 ft 29.95 °N, 90.20 °W | Updated 11 seconds ago

Partly Cloudy
Partly Cloudy
77.6 °F
Feels Like 80 °F
N
0.0
Wind Variable Wind from SSW
Gusts 1.0 mph

Today
High -- | Low -- °F
--% Chance of Precip.
Yesterday
High -- | Low -- °F
Precip. -- in
6:38 AM 7:21 PM
Waning Gibbous, 64% visible
Pressure 29.95 in
Visibility 10.0 miles
Clouds Scattered Clouds 1900 ft
Scattered Clouds 25000 ft
Heat Index 80 °F
Dew Point 75 °F
Humidity 93%
Rainfall 0.06 in
Snow Depth Not available.
UV 0 out of 12
Pollen 7.60 out of 12
Air Quality Not available.
Flu Activity Not available.
METAR KMSY 040253Z 17003KT 10SM SCT019 SCT250 27/23 A2994 RMK AO2 SLP141 T02670233 52012
Pressure 29.95 in
Visibility 10.0 miles
Clouds Scattered Clouds 1900 ft
Scattered Clouds 25000 ft
Heat Index 80 °F
Dew Point 75 °F
Humidity 93%
Rainfall 0.06 in
Snow Depth Not available.
UV 0 out of 12
Pollen 7.60 out of 12
Air Quality Not available.
Flu Activity Not available.
METAR KMSY 040253Z 17003KT 10SM SCT019 SCT250 27/23 A2994 RMK AO2 SLP141 T02670233 52012

10-Day Weather Forecast

×

Almanac

Astronomy

Sep. 03, 2015 Rise Set
Actual Time
Civil Twilight
Nautical Twilight
Astronomical Twilight
Moon
Length of Visible Light
Length of Day
Tomorrow will be .
, % of the Moon is Illuminated

Today's Extremes

State Highs State Lows

Community

WunderPhotos

Upload Photos

1,852,118 photos uploaded!

WunderBlogs® & News

Nearby

Air Quality

  Air Quality AQ Index Pollutant
Not available.

Snow Depth

Station Depth Elevation

Earthquake Activity

City Distance Mag. Time & Date
Minimum magnitude displayed is 2.5.

Coastal Water Temperatures

Place Temperature

Stations

Nearby Weather Stations

Station Location Temp. Windchill Dew Point Humidity Wind Precip. Elev Updated Type